sensor_id;sensor_type;location;lat;lon;timestamp;pressure;altitude;pressure_sealevel;temperature;humidity
26711;BME280;18311;52.754;18.118;2023-02-22T00:01:51;100554.66;;;18.42;41.97
26711;BME280;18311;52.754;18.118;2023-02-22T00:04:23;100555.03;;;18.48;41.85
26711;BME280;18311;52.754;18.118;2023-02-22T00:06:55;100555.53;;;18.18;41.88
26711;BME280;18311;52.754;18.118;2023-02-22T00:09:27;100556.66;;;18.51;41.61
26711;BME280;18311;52.754;18.118;2023-02-22T00:11:58;100559.34;;;18.16;42.24
26711;BME280;18311;52.754;18.118;2023-02-22T00:14:29;100574.58;;;18.76;41.61
26711;BME280;18311;52.754;18.118;2023-02-22T00:17:00;100564.58;;;18.65;41.56
26711;BME280;18311;52.754;18.118;2023-02-22T00:19:30;100575.22;;;18.20;42.36
26711;BME280;18311;52.754;18.118;2023-02-22T00:22:02;100572.96;;;17.90;42.90
26711;BME280;18311;52.754;18.118;2023-02-22T00:24:34;100574.91;;;17.75;43.18
26711;BME280;18311;52.754;18.118;2023-02-22T00:27:04;100576.98;;;18.08;42.48
26711;BME280;18311;52.754;18.118;2023-02-22T00:29:35;100575.52;;;18.28;42.12
26711;BME280;18311;52.754;18.118;2023-02-22T00:32:07;100578.05;;;17.95;42.81
26711;BME280;18311;52.754;18.118;2023-02-22T00:34:38;100577.48;;;18.26;42.08
26711;BME280;18311;52.754;18.118;2023-02-22T00:37:09;100575.91;;;18.11;42.43
26711;BME280;18311;52.754;18.118;2023-02-22T00:39:40;100574.80;;;18.14;42.50
26711;BME280;18311;52.754;18.118;2023-02-22T00:42:11;100579.77;;;18.20;42.22
26711;BME280;18311;52.754;18.118;2023-02-22T00:44:41;100585.80;;;17.99;42.88
26711;BME280;18311;52.754;18.118;2023-02-22T00:47:12;100573.07;;;17.88;43.23
26711;BME280;18311;52.754;18.118;2023-02-22T00:49:43;100581.09;;;17.77;43.07
26711;BME280;18311;52.754;18.118;2023-02-22T00:52:13;100584.71;;;18.26;42.34
26711;BME280;18311;52.754;18.118;2023-02-22T00:54:44;100581.56;;;18.32;41.97
26711;BME280;18311;52.754;18.118;2023-02-22T00:57:15;100578.44;;;18.25;42.24
26711;BME280;18311;52.754;18.118;2023-02-22T00:59:47;100586.44;;;18.03;42.31
26711;BME280;18311;52.754;18.118;2023-02-22T01:02:17;100581.72;;;17.93;42.89
26711;BME280;18311;52.754;18.118;2023-02-22T01:04:48;100585.08;;;17.71;43.37
26711;BME280;18311;52.754;18.118;2023-02-22T01:07:19;100588.17;;;17.41;43.96
26711;BME280;18311;52.754;18.118;2023-02-22T01:09:50;100586.30;;;17.67;43.35
26711;BME280;18311;52.754;18.118;2023-02-22T01:12:22;100594.36;;;17.80;43.21
26711;BME280;18311;52.754;18.118;2023-02-22T01:14:52;100597.22;;;17.66;43.46
26711;BME280;18311;52.754;18.118;2023-02-22T01:17:25;100600.70;;;17.55;43.74
26711;BME280;18311;52.754;18.118;2023-02-22T01:19:56;100604.47;;;17.65;43.23
26711;BME280;18311;52.754;18.118;2023-02-22T01:22:27;100609.15;;;17.38;43.77
26711;BME280;18311;52.754;18.118;2023-02-22T01:24:57;100610.05;;;16.72;44.85
26711;BME280;18311;52.754;18.118;2023-02-22T01:27:28;100615.26;;;16.48;45.63
26711;BME280;18311;52.754;18.118;2023-02-22T01:29:59;100609.05;;;16.73;45.19
26711;BME280;18311;52.754;18.118;2023-02-22T01:32:29;100605.55;;;16.86;45.16
26711;BME280;18311;52.754;18.118;2023-02-22T01:35:04;100603.10;;;16.68;45.35
26711;BME280;18311;52.754;18.118;2023-02-22T01:37:37;100601.89;;;16.87;44.95
26711;BME280;18311;52.754;18.118;2023-02-22T01:40:10;100611.42;;;17.18;44.52
26711;BME280;18311;52.754;18.118;2023-02-22T01:42:43;100599.63;;;17.19;44.10
26711;BME280;18311;52.754;18.118;2023-02-22T01:48:10;100618.34;;;17.09;44.13
26711;BME280;18311;52.754;18.118;2023-02-22T01:50:40;100627.05;;;16.87;44.68
26711;BME280;18311;52.754;18.118;2023-02-22T01:53:13;100628.30;;;16.41;45.19
26711;BME280;18311;52.754;18.118;2023-02-22T01:55:44;100621.16;;;16.80;44.63
26711;BME280;18311;52.754;18.118;2023-02-22T01:58:16;100624.22;;;16.49;45.12
26711;BME280;18311;52.754;18.118;2023-02-22T02:00:48;100633.69;;;16.41;44.99
26711;BME280;18311;52.754;18.118;2023-02-22T02:03:21;100623.39;;;16.88;44.34
26711;BME280;18311;52.754;18.118;2023-02-22T02:05:57;100620.69;;;16.88;44.28
26711;BME280;18311;52.754;18.118;2023-02-22T02:08:41;100619.55;;;16.78;44.28
26711;BME280;18311;52.754;18.118;2023-02-22T02:11:11;100622.78;;;17.23;43.25
26711;BME280;18311;52.754;18.118;2023-02-22T02:13:43;100624.17;;;17.29;42.86
26711;BME280;18311;52.754;18.118;2023-02-22T02:16:14;100621.34;;;17.05;43.28
26711;BME280;18311;52.754;18.118;2023-02-22T02:18:44;100629.55;;;16.90;43.18
26711;BME280;18311;52.754;18.118;2023-02-22T02:27:18;100624.64;;;16.42;44.34
26711;BME280;18311;52.754;18.118;2023-02-22T02:38:58;100638.82;;;16.32;44.22
26711;BME280;18311;52.754;18.118;2023-02-22T02:41:34;100637.02;;;16.32;44.11
26711;BME280;18311;52.754;18.118;2023-02-22T02:44:30;100638.63;;;15.64;45.02
26711;BME280;18311;52.754;18.118;2023-02-22T02:47:02;100652.98;;;15.79;44.71
26711;BME280;18311;52.754;18.118;2023-02-22T02:49:46;100651.09;;;15.81;44.96
26711;BME280;18311;52.754;18.118;2023-02-22T02:52:12;100646.02;;;16.04;44.72
26711;BME280;18311;52.754;18.118;2023-02-22T02:54:45;100660.22;;;15.79;45.43
26711;BME280;18311;52.754;18.118;2023-02-22T02:57:17;100657.01;;;15.72;45.19
26711;BME280;18311;52.754;18.118;2023-02-22T02:59:47;100655.39;;;15.70;45.54
26711;BME280;18311;52.754;18.118;2023-02-22T03:05:34;100670.72;;;15.83;44.87
26711;BME280;18311;52.754;18.118;2023-02-22T03:08:18;100670.70;;;15.69;45.22
26711;BME280;18311;52.754;18.118;2023-02-22T03:19:32;100677.16;;;15.81;44.20
26711;BME280;18311;52.754;18.118;2023-02-22T03:22:08;100677.36;;;15.92;44.13
26711;BME280;18311;52.754;18.118;2023-02-22T03:24:41;100678.52;;;16.02;44.02
26711;BME280;18311;52.754;18.118;2023-02-22T03:27:19;100678.30;;;16.05;43.51
26711;BME280;18311;52.754;18.118;2023-02-22T03:29:52;100678.91;;;15.82;44.04
26711;BME280;18311;52.754;18.118;2023-02-22T03:32:26;100673.33;;;15.85;44.18
26711;BME280;18311;52.754;18.118;2023-02-22T03:35:00;100680.61;;;16.12;43.62
26711;BME280;18311;52.754;18.118;2023-02-22T03:37:33;100682.03;;;15.74;43.99
26711;BME280;18311;52.754;18.118;2023-02-22T03:40:08;100686.31;;;15.93;43.83
26711;BME280;18311;52.754;18.118;2023-02-22T03:42:49;100693.55;;;15.92;43.58
26711;BME280;18311;52.754;18.118;2023-02-22T03:45:22;100692.48;;;15.80;43.46
26711;BME280;18311;52.754;18.118;2023-02-22T03:48:22;100696.80;;;15.83;43.71
26711;BME280;18311;52.754;18.118;2023-02-22T03:50:34;100691.72;;;15.78;43.55
26711;BME280;18311;52.754;18.118;2023-02-22T03:53:05;100694.51;;;15.77;43.96
26711;BME280;18311;52.754;18.118;2023-02-22T03:55:36;100699.45;;;15.40;44.34
26711;BME280;18311;52.754;18.118;2023-02-22T03:58:09;100702.69;;;15.30;44.69
26711;BME280;18311;52.754;18.118;2023-02-22T04:00:40;100696.09;;;15.06;45.10
26711;BME280;18311;52.754;18.118;2023-02-22T04:03:13;100708.78;;;15.04;45.20
26711;BME280;18311;52.754;18.118;2023-02-22T04:05:43;100710.11;;;14.97;45.08
26711;BME280;18311;52.754;18.118;2023-02-22T04:08:14;100706.56;;;14.96;44.94
26711;BME280;18311;52.754;18.118;2023-02-22T04:10:45;100714.77;;;15.09;44.76
26711;BME280;18311;52.754;18.118;2023-02-22T04:13:16;100717.05;;;15.31;44.55
26711;BME280;18311;52.754;18.118;2023-02-22T04:15:46;100711.59;;;15.47;44.34
26711;BME280;18311;52.754;18.118;2023-02-22T04:18:17;100718.73;;;15.62;43.86
26711;BME280;18311;52.754;18.118;2023-02-22T04:20:49;100722.11;;;15.66;43.68
26711;BME280;18311;52.754;18.118;2023-02-22T04:23:21;100715.72;;;15.38;44.26
26711;BME280;18311;52.754;18.118;2023-02-22T04:25:52;100721.13;;;15.53;44.32
26711;BME280;18311;52.754;18.118;2023-02-22T04:28:23;100727.05;;;15.88;43.51
26711;BME280;18311;52.754;18.118;2023-02-22T04:30:53;100725.91;;;15.92;43.30
26711;BME280;18311;52.754;18.118;2023-02-22T04:33:25;100728.80;;;15.75;43.53
26711;BME280;18311;52.754;18.118;2023-02-22T04:35:56;100728.12;;;15.85;43.14
26711;BME280;18311;52.754;18.118;2023-02-22T04:38:29;100724.37;;;15.29;44.23
26711;BME280;18311;52.754;18.118;2023-02-22T04:40:59;100729.19;;;15.38;44.30
26711;BME280;18311;52.754;18.118;2023-02-22T04:43:30;100731.65;;;15.27;44.50
26711;BME280;18311;52.754;18.118;2023-02-22T04:46:01;100734.86;;;15.93;43.15
26711;BME280;18311;52.754;18.118;2023-02-22T04:48:32;100740.44;;;15.90;43.36
26711;BME280;18311;52.754;18.118;2023-02-22T04:51:05;100746.55;;;15.63;43.38
26711;BME280;18311;52.754;18.118;2023-02-22T04:53:38;100742.86;;;15.94;43.15
26711;BME280;18311;52.754;18.118;2023-02-22T04:56:09;100747.67;;;15.89;43.03
26711;BME280;18311;52.754;18.118;2023-02-22T04:58:40;100749.96;;;15.95;42.83
26711;BME280;18311;52.754;18.118;2023-02-22T05:01:10;100753.78;;;15.62;43.48
26711;BME280;18311;52.754;18.118;2023-02-22T05:03:41;100754.64;;;15.63;43.55
26711;BME280;18311;52.754;18.118;2023-02-22T05:06:12;100760.39;;;15.57;43.61
26711;BME280;18311;52.754;18.118;2023-02-22T05:08:43;100754.95;;;14.98;44.74
26711;BME280;18311;52.754;18.118;2023-02-22T05:11:13;100760.98;;;15.17;44.68
26711;BME280;18311;52.754;18.118;2023-02-22T05:13:45;100762.47;;;15.37;44.12
26711;BME280;18311;52.754;18.118;2023-02-22T05:16:16;100764.56;;;15.62;43.98
26711;BME280;18311;52.754;18.118;2023-02-22T05:18:46;100764.03;;;15.86;43.30
26711;BME280;18311;52.754;18.118;2023-02-22T05:21:17;100766.14;;;15.81;43.10
26711;BME280;18311;52.754;18.118;2023-02-22T05:23:48;100761.88;;;15.62;43.55
26711;BME280;18311;52.754;18.118;2023-02-22T05:26:20;100764.85;;;15.72;43.43
26711;BME280;18311;52.754;18.118;2023-02-22T05:28:51;100763.45;;;15.81;43.17
26711;BME280;18311;52.754;18.118;2023-02-22T05:31:22;100769.16;;;15.91;43.04
26711;BME280;18311;52.754;18.118;2023-02-22T05:33:52;100764.03;;;16.00;43.06
26711;BME280;18311;52.754;18.118;2023-02-22T05:36:25;100755.57;;;15.47;43.82
26711;BME280;18311;52.754;18.118;2023-02-22T05:38:59;100763.09;;;15.57;43.76
26711;BME280;18311;52.754;18.118;2023-02-22T05:41:32;100769.38;;;15.72;43.61
26711;BME280;18311;52.754;18.118;2023-02-22T05:44:10;100772.66;;;15.62;43.56
26711;BME280;18311;52.754;18.118;2023-02-22T05:46:42;100775.41;;;15.46;43.92
26711;BME280;18311;52.754;18.118;2023-02-22T05:49:16;100784.25;;;15.79;43.27
26711;BME280;18311;52.754;18.118;2023-02-22T05:51:51;100792.56;;;16.19;42.43
26711;BME280;18311;52.754;18.118;2023-02-22T05:54:23;100788.34;;;15.70;43.13
26711;BME280;18311;52.754;18.118;2023-02-22T05:56:57;100800.84;;;15.87;42.46
26711;BME280;18311;52.754;18.118;2023-02-22T05:59:32;100795.39;;;15.73;42.76
26711;BME280;18311;52.754;18.118;2023-02-22T06:02:04;100807.98;;;15.72;42.76
26711;BME280;18311;52.754;18.118;2023-02-22T06:04:37;100796.77;;;15.49;42.71
26711;BME280;18311;52.754;18.118;2023-02-22T06:07:13;100808.92;;;15.87;42.06
26711;BME280;18311;52.754;18.118;2023-02-22T06:09:46;100802.69;;;15.71;42.37
26711;BME280;18311;52.754;18.118;2023-02-22T06:12:17;100812.70;;;15.68;42.44
26711;BME280;18311;52.754;18.118;2023-02-22T06:14:56;100806.91;;;15.30;42.90
26711;BME280;18311;52.754;18.118;2023-02-22T06:17:33;100807.75;;;15.77;42.22
26711;BME280;18311;52.754;18.118;2023-02-22T06:20:13;100803.05;;;16.09;41.43
26711;BME280;18311;52.754;18.118;2023-02-22T06:22:53;100814.32;;;15.87;41.55
26711;BME280;18311;52.754;18.118;2023-02-22T06:25:31;100818.96;;;16.14;41.46
26711;BME280;18311;52.754;18.118;2023-02-22T06:28:05;100823.89;;;16.36;40.83
26711;BME280;18311;52.754;18.118;2023-02-22T06:30:39;100825.30;;;16.13;41.24
26711;BME280;18311;52.754;18.118;2023-02-22T06:33:18;100836.21;;;16.40;41.45
26711;BME280;18311;52.754;18.118;2023-02-22T06:35:51;100836.25;;;15.81;41.51
26711;BME280;18311;52.754;18.118;2023-02-22T06:38:26;100837.91;;;15.83;41.19
26711;BME280;18311;52.754;18.118;2023-02-22T06:41:00;100843.05;;;16.02;40.93
26711;BME280;18311;52.754;18.118;2023-02-22T06:43:33;100836.67;;;16.03;40.73
26711;BME280;18311;52.754;18.118;2023-02-22T06:46:11;100833.39;;;16.13;40.81
26711;BME280;18311;52.754;18.118;2023-02-22T06:48:45;100840.17;;;16.20;40.53
26711;BME280;18311;52.754;18.118;2023-02-22T06:51:17;100843.33;;;16.12;40.80
26711;BME280;18311;52.754;18.118;2023-02-22T06:53:52;100844.84;;;15.88;41.15
26711;BME280;18311;52.754;18.118;2023-02-22T06:56:26;100846.47;;;15.29;41.69
26711;BME280;18311;52.754;18.118;2023-02-22T06:59:00;100850.35;;;15.70;41.14
26711;BME280;18311;52.754;18.118;2023-02-22T07:01:33;100854.12;;;15.67;41.03
26711;BME280;18311;52.754;18.118;2023-02-22T07:04:05;100852.45;;;15.95;40.47
26711;BME280;18311;52.754;18.118;2023-02-22T07:06:39;100855.64;;;16.02;40.63
26711;BME280;18311;52.754;18.118;2023-02-22T07:09:09;100854.03;;;16.14;40.58
26711;BME280;18311;52.754;18.118;2023-02-22T07:11:43;100856.31;;;15.91;40.74
26711;BME280;18311;52.754;18.118;2023-02-22T07:14:18;100857.28;;;15.90;40.35
26711;BME280;18311;52.754;18.118;2023-02-22T07:16:52;100856.73;;;16.14;40.18
26711;BME280;18311;52.754;18.118;2023-02-22T07:19:26;100860.95;;;16.18;39.58
26711;BME280;18311;52.754;18.118;2023-02-22T07:21:58;100863.50;;;16.50;39.59
26711;BME280;18311;52.754;18.118;2023-02-22T07:24:30;100849.73;;;15.81;40.14
26711;BME280;18311;52.754;18.118;2023-02-22T07:27:04;100860.87;;;16.19;39.90
26711;BME280;18311;52.754;18.118;2023-02-22T07:29:57;100862.53;;;16.36;39.49
26711;BME280;18311;52.754;18.118;2023-02-22T07:32:31;100862.62;;;16.20;39.04
26711;BME280;18311;52.754;18.118;2023-02-22T07:35:08;100858.75;;;16.10;39.32
26711;BME280;18311;52.754;18.118;2023-02-22T07:37:40;100861.61;;;15.62;39.73
26711;BME280;18311;52.754;18.118;2023-02-22T07:40:36;100872.95;;;16.42;38.71
26711;BME280;18311;52.754;18.118;2023-02-22T07:43:17;100873.31;;;16.51;38.65
26711;BME280;18311;52.754;18.118;2023-02-22T07:45:53;100873.31;;;16.51;37.85
26711;BME280;18311;52.754;18.118;2023-02-22T07:48:26;100877.00;;;16.50;38.31
26711;BME280;18311;52.754;18.118;2023-02-22T07:51:00;100878.35;;;16.42;38.43
26711;BME280;18311;52.754;18.118;2023-02-22T07:53:33;100868.47;;;16.70;37.69
26711;BME280;18311;52.754;18.118;2023-02-22T07:56:07;100876.12;;;16.64;37.37
26711;BME280;18311;52.754;18.118;2023-02-22T07:58:38;100875.84;;;16.39;37.95
26711;BME280;18311;52.754;18.118;2023-02-22T08:01:10;100884.48;;;16.30;38.13
26711;BME280;18311;52.754;18.118;2023-02-22T08:03:40;100877.37;;;16.43;37.78
26711;BME280;18311;52.754;18.118;2023-02-22T08:06:11;100885.08;;;16.64;37.34
26711;BME280;18311;52.754;18.118;2023-02-22T08:08:41;100876.30;;;16.32;37.11
26711;BME280;18311;52.754;18.118;2023-02-22T08:11:12;100885.23;;;16.03;37.45
26711;BME280;18311;52.754;18.118;2023-02-22T08:13:43;100889.52;;;16.36;37.51
26711;BME280;18311;52.754;18.118;2023-02-22T08:16:14;100880.33;;;16.82;36.38
26711;BME280;18311;52.754;18.118;2023-02-22T08:18:44;100889.91;;;16.59;35.79
26711;BME280;18311;52.754;18.118;2023-02-22T08:21:16;100884.69;;;16.56;35.44
26711;BME280;18311;52.754;18.118;2023-02-22T08:23:51;100888.16;;;16.43;36.13
26711;BME280;18311;52.754;18.118;2023-02-22T08:26:23;100883.98;;;17.10;35.41
26711;BME280;18311;52.754;18.118;2023-02-22T08:28:53;100887.86;;;17.06;35.31
26711;BME280;18311;52.754;18.118;2023-02-22T08:31:25;100892.55;;;17.16;35.21
26711;BME280;18311;52.754;18.118;2023-02-22T08:33:55;100883.26;;;16.93;34.86
26711;BME280;18311;52.754;18.118;2023-02-22T08:36:26;100883.17;;;17.22;34.96
26711;BME280;18311;52.754;18.118;2023-02-22T08:38:58;100884.45;;;17.16;35.11
26711;BME280;18311;52.754;18.118;2023-02-22T08:41:28;100886.23;;;17.30;34.81
26711;BME280;18311;52.754;18.118;2023-02-22T08:43:59;100886.78;;;17.08;34.99
26711;BME280;18311;52.754;18.118;2023-02-22T08:46:30;100892.82;;;16.85;35.39
26711;BME280;18311;52.754;18.118;2023-02-22T08:49:02;100891.75;;;16.58;35.45
26711;BME280;18311;52.754;18.118;2023-02-22T08:51:36;100890.89;;;17.28;34.78
26711;BME280;18311;52.754;18.118;2023-02-22T08:54:06;100897.19;;;17.42;34.71
26711;BME280;18311;52.754;18.118;2023-02-22T08:56:37;100887.98;;;16.90;34.46
26711;BME280;18311;52.754;18.118;2023-02-22T08:59:07;100887.86;;;17.60;33.65
26711;BME280;18311;52.754;18.118;2023-02-22T09:01:38;100888.83;;;17.86;33.64
26711;BME280;18311;52.754;18.118;2023-02-22T09:04:09;100877.16;;;18.11;33.22
26711;BME280;18311;52.754;18.118;2023-02-22T09:06:42;100886.16;;;17.17;34.14
26711;BME280;18311;52.754;18.118;2023-02-22T09:09:14;100888.44;;;17.78;33.63
26711;BME280;18311;52.754;18.118;2023-02-22T09:11:49;100884.80;;;17.52;33.08
26711;BME280;18311;52.754;18.118;2023-02-22T09:14:21;100890.91;;;18.34;33.01
26711;BME280;18311;52.754;18.118;2023-02-22T09:16:51;100895.47;;;18.59;32.57
26711;BME280;18311;52.754;18.118;2023-02-22T09:19:22;100898.93;;;18.36;31.83
26711;BME280;18311;52.754;18.118;2023-02-22T09:21:54;100901.96;;;18.82;32.21
26711;BME280;18311;52.754;18.118;2023-02-22T09:24:25;100901.00;;;18.19;32.58
26711;BME280;18311;52.754;18.118;2023-02-22T09:26:55;100900.54;;;18.77;31.91
26711;BME280;18311;52.754;18.118;2023-02-22T09:29:27;100906.19;;;18.48;32.54
26711;BME280;18311;52.754;18.118;2023-02-22T09:31:59;100896.01;;;18.64;32.31
26711;BME280;18311;52.754;18.118;2023-02-22T09:34:30;100908.13;;;18.59;32.21
26711;BME280;18311;52.754;18.118;2023-02-22T09:37:02;100904.55;;;18.58;32.64
26711;BME280;18311;52.754;18.118;2023-02-22T09:39:34;100910.28;;;18.15;33.06
26711;BME280;18311;52.754;18.118;2023-02-22T09:42:12;100911.58;;;18.09;32.22
26711;BME280;18311;52.754;18.118;2023-02-22T09:47:40;100908.09;;;18.97;31.61
26711;BME280;18311;52.754;18.118;2023-02-22T09:50:14;100915.94;;;18.89;31.33
26711;BME280;18311;52.754;18.118;2023-02-22T09:53:05;100911.09;;;19.67;31.07
26711;BME280;18311;52.754;18.118;2023-02-22T09:58:24;100890.50;;;23.73;26.81
26711;BME280;18311;52.754;18.118;2023-02-22T10:00:56;100901.19;;;25.46;25.86
26711;BME280;18311;52.754;18.118;2023-02-22T10:06:22;100896.03;;;27.77;23.90
26711;BME280;18311;52.754;18.118;2023-02-22T10:08:56;100910.84;;;29.37;21.72
26711;BME280;18311;52.754;18.118;2023-02-22T10:14:40;100911.00;;;29.90;20.84
26711;BME280;18311;52.754;18.118;2023-02-22T10:17:25;100918.48;;;30.43;21.24
26711;BME280;18311;52.754;18.118;2023-02-22T10:20:07;100910.42;;;31.52;19.73
26711;BME280;18311;52.754;18.118;2023-02-22T10:27:57;100905.24;;;30.38;19.91
26711;BME280;18311;52.754;18.118;2023-02-22T10:30:29;100911.92;;;31.18;20.02
26711;BME280;18311;52.754;18.118;2023-02-22T10:33:04;100915.67;;;31.47;19.43
26711;BME280;18311;52.754;18.118;2023-02-22T10:35:35;100905.70;;;32.39;18.77
26711;BME280;18311;52.754;18.118;2023-02-22T10:38:15;100914.46;;;32.14;18.83
26711;BME280;18311;52.754;18.118;2023-02-22T10:41:02;100909.62;;;31.22;19.03
26711;BME280;18311;52.754;18.118;2023-02-22T10:43:23;100907.28;;;31.98;18.92
26711;BME280;18311;52.754;18.118;2023-02-22T10:45:56;100914.70;;;32.76;18.12
26711;BME280;18311;52.754;18.118;2023-02-22T10:48:31;100917.73;;;34.04;17.60
26711;BME280;18311;52.754;18.118;2023-02-22T10:51:06;100910.00;;;32.70;18.36
26711;BME280;18311;52.754;18.118;2023-02-22T10:53:37;100906.23;;;31.56;18.34
26711;BME280;18311;52.754;18.118;2023-02-22T10:56:13;100911.63;;;31.28;18.67
26711;BME280;18311;52.754;18.118;2023-02-22T11:04:19;100910.41;;;25.45;22.82
26711;BME280;18311;52.754;18.118;2023-02-22T11:07:12;100905.49;;;25.85;22.67
26711;BME280;18311;52.754;18.118;2023-02-22T11:09:49;100897.55;;;26.17;23.08
26711;BME280;18311;52.754;18.118;2023-02-22T11:12:28;100905.38;;;25.13;23.62
26711;BME280;18311;52.754;18.118;2023-02-22T11:15:25;100894.34;;;24.29;24.59
26711;BME280;18311;52.754;18.118;2023-02-22T11:17:55;100893.66;;;23.79;24.57
26711;BME280;18311;52.754;18.118;2023-02-22T11:20:31;100894.34;;;24.29;24.64
26711;BME280;18311;52.754;18.118;2023-02-22T11:23:04;100890.17;;;27.64;22.21
26711;BME280;18311;52.754;18.118;2023-02-22T11:25:38;100891.31;;;28.76;21.12
26711;BME280;18311;52.754;18.118;2023-02-22T11:28:16;100888.22;;;29.11;21.32
26711;BME280;18311;52.754;18.118;2023-02-22T11:30:48;100883.65;;;30.04;20.48
26711;BME280;18311;52.754;18.118;2023-02-22T11:33:22;100891.13;;;29.72;20.43
26711;BME280;18311;52.754;18.118;2023-02-22T11:36:02;100892.56;;;30.29;20.09
26711;BME280;18311;52.754;18.118;2023-02-22T11:38:36;100892.68;;;29.98;20.76
26711;BME280;18311;52.754;18.118;2023-02-22T11:41:18;100901.80;;;29.21;20.83
26711;BME280;18311;52.754;18.118;2023-02-22T11:43:51;100890.48;;;28.43;21.10
26711;BME280;18311;52.754;18.118;2023-02-22T11:46:26;100892.13;;;29.25;20.96
26711;BME280;18311;52.754;18.118;2023-02-22T11:49:03;100894.87;;;26.78;21.69
26711;BME280;18311;52.754;18.118;2023-02-22T11:54:58;100898.21;;;25.39;23.60
26711;BME280;18311;52.754;18.118;2023-02-22T12:00:18;100896.17;;;24.39;24.03
26711;BME280;18311;52.754;18.118;2023-02-22T12:03:00;100892.95;;;23.77;24.59
26711;BME280;18311;52.754;18.118;2023-02-22T12:08:40;100890.92;;;23.69;24.72
26711;BME280;18311;52.754;18.118;2023-02-22T12:11:18;100893.37;;;23.72;25.25
26711;BME280;18311;52.754;18.118;2023-02-22T12:17:21;100892.20;;;24.71;24.24
26711;BME280;18311;52.754;18.118;2023-02-22T12:22:52;100915.70;;;25.01;24.21
26711;BME280;18311;52.754;18.118;2023-02-22T12:25:32;100896.94;;;24.78;23.94
26711;BME280;18311;52.754;18.118;2023-02-22T12:28:09;100902.05;;;25.19;23.47
26711;BME280;18311;52.754;18.118;2023-02-22T12:30:38;100897.92;;;26.49;22.78
26711;BME280;18311;52.754;18.118;2023-02-22T12:33:24;100901.67;;;25.77;23.29
26711;BME280;18311;52.754;18.118;2023-02-22T12:35:55;100903.45;;;25.23;23.63
26711;BME280;18311;52.754;18.118;2023-02-22T12:38:37;100890.14;;;26.10;22.82
26711;BME280;18311;52.754;18.118;2023-02-22T12:41:19;100896.83;;;26.33;22.89
26711;BME280;18311;52.754;18.118;2023-02-22T12:44:16;100890.21;;;26.44;22.58
26711;BME280;18311;52.754;18.118;2023-02-22T12:46:52;100892.75;;;27.65;22.17
26711;BME280;18311;52.754;18.118;2023-02-22T12:49:34;100895.08;;;27.27;22.02
26711;BME280;18311;52.754;18.118;2023-02-22T12:52:10;100896.94;;;27.27;22.31
26711;BME280;18311;52.754;18.118;2023-02-22T12:57:40;100897.98;;;25.87;23.12
26711;BME280;18311;52.754;18.118;2023-02-22T13:05:48;100900.58;;;23.92;24.11
26711;BME280;18311;52.754;18.118;2023-02-22T13:08:26;100903.71;;;24.17;24.40
26711;BME280;18311;52.754;18.118;2023-02-22T13:11:12;100894.06;;;23.35;24.42
26711;BME280;18311;52.754;18.118;2023-02-22T13:16:41;100898.41;;;23.77;24.70
26711;BME280;18311;52.754;18.118;2023-02-22T13:27:46;100903.20;;;24.61;23.39
26711;BME280;18311;52.754;18.118;2023-02-22T13:30:28;100909.11;;;24.94;23.62
26711;BME280;18311;52.754;18.118;2023-02-22T13:35:44;100909.19;;;25.02;22.99
26711;BME280;18311;52.754;18.118;2023-02-22T13:41:18;100898.61;;;25.17;23.58
26711;BME280;18311;52.754;18.118;2023-02-22T13:52:08;100905.31;;;24.10;23.41
26711;BME280;18311;52.754;18.118;2023-02-22T13:54:48;100898.77;;;24.30;23.61
26711;BME280;18311;52.754;18.118;2023-02-22T13:57:29;100901.51;;;24.30;23.63
26711;BME280;18311;52.754;18.118;2023-02-22T14:00:18;100903.64;;;24.56;24.56
26711;BME280;18311;52.754;18.118;2023-02-22T14:03:05;100900.70;;;23.71;24.14
26711;BME280;18311;52.754;18.118;2023-02-22T14:13:29;100899.62;;;22.83;25.04
26711;BME280;18311;52.754;18.118;2023-02-22T14:18:42;100893.88;;;22.24;25.36
26711;BME280;18311;52.754;18.118;2023-02-22T14:21:17;100902.44;;;22.20;25.78
26711;BME280;18311;52.754;18.118;2023-02-22T14:23:52;100898.30;;;21.83;26.01
26711;BME280;18311;52.754;18.118;2023-02-22T14:26:38;100899.33;;;22.03;25.30
26711;BME280;18311;52.754;18.118;2023-02-22T14:37:24;100899.12;;;22.16;25.75
26711;BME280;18311;52.754;18.118;2023-02-22T14:40:01;100898.52;;;21.92;25.82
26711;BME280;18311;52.754;18.118;2023-02-22T14:42:36;100900.52;;;22.11;25.97
26711;BME280;18311;52.754;18.118;2023-02-22T14:50:26;100913.78;;;21.83;26.20
26711;BME280;18311;52.754;18.118;2023-02-22T14:55:43;100920.41;;;21.58;26.34
26711;BME280;18311;52.754;18.118;2023-02-22T14:58:18;100910.44;;;21.47;26.72
26711;BME280;18311;52.754;18.118;2023-02-22T15:00:50;100917.88;;;21.34;26.78
26711;BME280;18311;52.754;18.118;2023-02-22T15:03:31;100910.98;;;21.18;27.29
26711;BME280;18311;52.754;18.118;2023-02-22T15:06:22;100923.32;;;21.34;27.03
26711;BME280;18311;52.754;18.118;2023-02-22T15:09:06;100926.56;;;21.05;27.46
26711;BME280;18311;52.754;18.118;2023-02-22T15:11:25;100917.67;;;20.91;27.80
26711;BME280;18311;52.754;18.118;2023-02-22T15:14:11;100916.33;;;20.97;27.95
26711;BME280;18311;52.754;18.118;2023-02-22T15:16:38;100913.84;;;20.83;27.54
26711;BME280;18311;52.754;18.118;2023-02-22T15:19:10;100916.99;;;20.20;27.67
26711;BME280;18311;52.754;18.118;2023-02-22T15:21:45;100928.94;;;20.17;27.98
26711;BME280;18311;52.754;18.118;2023-02-22T15:24:23;100927.18;;;20.05;28.36